sensor_id;sensor_type;location;lat;lon;timestamp;pressure;altitude;pressure_sealevel;temperature
24714;BMP280;12820;51.580;5.010;2023-02-01T00:02:05;102151.22;;;7.53
24714;BMP280;12820;51.580;5.010;2023-02-01T00:07:07;102143.63;;;7.49
24714;BMP280;12820;51.580;5.010;2023-02-01T00:12:09;102112.69;;;7.45
24714;BMP280;12820;51.580;5.010;2023-02-01T00:17:12;102116.03;;;7.45
24714;BMP280;12820;51.580;5.010;2023-02-01T00:22:14;102111.03;;;7.45
24714;BMP280;12820;51.580;5.010;2023-02-01T00:27:16;102101.03;;;7.45
24714;BMP280;12820;51.580;5.010;2023-02-01T00:32:22;102102.69;;;7.45
24714;BMP280;12820;51.580;5.010;2023-02-01T00:37:24;102107.69;;;7.45
24714;BMP280;12820;51.580;5.010;2023-02-01T00:42:26;102102.63;;;7.43
24714;BMP280;12820;51.580;5.010;2023-02-01T00:47:28;102098.47;;;7.43
24714;BMP280;12820;51.580;5.010;2023-02-01T00:52:31;102102.59;;;7.40
24714;BMP280;12820;51.580;5.010;2023-02-01T00:57:33;102110.03;;;7.37
24714;BMP280;12820;51.580;5.010;2023-02-01T01:02:35;102106.69;;;7.36
24714;BMP280;12820;51.580;5.010;2023-02-01T01:07:37;102097.47;;;7.34
24714;BMP280;12820;51.580;5.010;2023-02-01T01:12:40;102107.44;;;7.32
24714;BMP280;12820;51.580;5.010;2023-02-01T01:17:42;102090.75;;;7.30
24714;BMP280;12820;51.580;5.010;2023-02-01T01:22:44;102090.66;;;7.27
24714;BMP280;12820;51.580;5.010;2023-02-01T01:27:47;102089.81;;;7.25
24714;BMP280;12820;51.580;5.010;2023-02-01T01:32:49;102088.09;;;7.23
24714;BMP280;12820;51.580;5.010;2023-02-01T01:37:51;102084.72;;;7.21
24714;BMP280;12820;51.580;5.010;2023-02-01T01:42:54;102096.34;;;7.19
24714;BMP280;12820;51.580;5.010;2023-02-01T01:48:20;102092.13;;;7.16
24714;BMP280;12820;51.580;5.010;2023-02-01T01:53:27;102100.44;;;7.15
24714;BMP280;12820;51.580;5.010;2023-02-01T01:58:32;102101.25;;;7.14
24714;BMP280;12820;51.580;5.010;2023-02-01T02:03:40;102093.75;;;7.14
24714;BMP280;12820;51.580;5.010;2023-02-01T02:08:44;102082.91;;;7.14
24714;BMP280;12820;51.580;5.010;2023-02-01T02:13:50;102087.09;;;7.15
24714;BMP280;12820;51.580;5.010;2023-02-01T02:40:57;102062.06;;;7.13
24714;BMP280;12820;51.580;5.010;2023-02-01T02:46:24;102067.91;;;7.14
24714;BMP280;12820;51.580;5.010;2023-02-01T02:51:52;102062.09;;;7.15
24714;BMP280;12820;51.580;5.010;2023-02-01T03:02:40;102035.50;;;7.18
24714;BMP280;12820;51.580;5.010;2023-02-01T03:13:14;102047.22;;;7.22
24714;BMP280;12820;51.580;5.010;2023-02-01T03:18:28;102043.13;;;7.24
24714;BMP280;12820;51.580;5.010;2023-02-01T03:23:34;102051.47;;;7.26
24714;BMP280;12820;51.580;5.010;2023-02-01T03:28:43;102043.97;;;7.26
24714;BMP280;12820;51.580;5.010;2023-02-01T03:33:47;102040.66;;;7.27
24714;BMP280;12820;51.580;5.010;2023-02-01T03:44:23;102028.97;;;7.26
24714;BMP280;12820;51.580;5.010;2023-02-01T03:49:29;102036.50;;;7.27
24714;BMP280;12820;51.580;5.010;2023-02-01T03:54:33;102040.66;;;7.26
24714;BMP280;12820;51.580;5.010;2023-02-01T03:59:40;102036.47;;;7.25
24714;BMP280;12820;51.580;5.010;2023-02-01T04:04:42;102046.47;;;7.25
24714;BMP280;12820;51.580;5.010;2023-02-01T04:09:49;102031.44;;;7.25
24714;BMP280;12820;51.580;5.010;2023-02-01T04:14:51;102016.44;;;7.25
24714;BMP280;12820;51.580;5.010;2023-02-01T04:19:53;102019.75;;;7.24
24714;BMP280;12820;51.580;5.010;2023-02-01T04:24:56;102023.09;;;7.24
24714;BMP280;12820;51.580;5.010;2023-02-01T04:29:58;102028.91;;;7.23
24714;BMP280;12820;51.580;5.010;2023-02-01T04:35:01;102034.81;;;7.25
24714;BMP280;12820;51.580;5.010;2023-02-01T04:40:03;102032.31;;;7.25
24714;BMP280;12820;51.580;5.010;2023-02-01T04:45:06;102036.47;;;7.25
24714;BMP280;12820;51.580;5.010;2023-02-01T04:50:08;102028.06;;;7.23
24714;BMP280;12820;51.580;5.010;2023-02-01T04:55:12;102039.72;;;7.22
24714;BMP280;12820;51.580;5.010;2023-02-01T05:00:15;102044.72;;;7.22
24714;BMP280;12820;51.580;5.010;2023-02-01T05:05:17;102045.56;;;7.23
24714;BMP280;12820;51.580;5.010;2023-02-01T05:10:20;102028.16;;;7.26
24714;BMP280;12820;51.580;5.010;2023-02-01T05:15:23;102026.53;;;7.29
24714;BMP280;12820;51.580;5.010;2023-02-01T05:20:25;102037.50;;;7.37
24714;BMP280;12820;51.580;5.010;2023-02-01T05:25:27;102032.59;;;7.43
24714;BMP280;12820;51.580;5.010;2023-02-01T05:30:29;102022.72;;;7.48
24714;BMP280;12820;51.580;5.010;2023-02-01T05:35:31;102017.78;;;7.54
24714;BMP280;12820;51.580;5.010;2023-02-01T05:40:33;102027.91;;;7.60
24714;BMP280;12820;51.580;5.010;2023-02-01T05:45:35;102036.31;;;7.63
24714;BMP280;12820;51.580;5.010;2023-02-01T05:50:37;102028.03;;;7.67
24714;BMP280;12820;51.580;5.010;2023-02-01T05:55:43;102029.72;;;7.70
24714;BMP280;12820;51.580;5.010;2023-02-01T06:00:45;102029.75;;;7.71
24714;BMP280;12820;51.580;5.010;2023-02-01T06:05:48;102037.31;;;7.73
24714;BMP280;12820;51.580;5.010;2023-02-01T06:10:50;102038.94;;;7.71
24714;BMP280;12820;51.580;5.010;2023-02-01T06:15:52;102047.25;;;7.70
24714;BMP280;12820;51.580;5.010;2023-02-01T06:20:55;102041.41;;;7.68
24714;BMP280;12820;51.580;5.010;2023-02-01T06:26:02;102048.88;;;7.66
24714;BMP280;12820;51.580;5.010;2023-02-01T06:31:05;102049.72;;;7.67
24714;BMP280;12820;51.580;5.010;2023-02-01T06:36:11;102048.03;;;7.66
24714;BMP280;12820;51.580;5.010;2023-02-01T06:41:23;102054.72;;;7.67
24714;BMP280;12820;51.580;5.010;2023-02-01T06:46:25;102051.41;;;7.68
24714;BMP280;12820;51.580;5.010;2023-02-01T06:51:27;102060.56;;;7.69
24714;BMP280;12820;51.580;5.010;2023-02-01T06:56:31;102058.91;;;7.68
24714;BMP280;12820;51.580;5.010;2023-02-01T07:01:33;102060.56;;;7.69
24714;BMP280;12820;51.580;5.010;2023-02-01T07:06:36;102054.72;;;7.67
24714;BMP280;12820;51.580;5.010;2023-02-01T07:11:38;102049.72;;;7.67
24714;BMP280;12820;51.580;5.010;2023-02-01T07:16:45;102056.38;;;7.66
24714;BMP280;12820;51.580;5.010;2023-02-01T07:21:47;102058.88;;;7.66
24714;BMP280;12820;51.580;5.010;2023-02-01T07:26:49;102058.88;;;7.66
24714;BMP280;12820;51.580;5.010;2023-02-01T07:31:53;102064.72;;;7.67
24714;BMP280;12820;51.580;5.010;2023-02-01T07:36:55;102061.38;;;7.66
24714;BMP280;12820;51.580;5.010;2023-02-01T07:41:57;102055.56;;;7.67
24714;BMP280;12820;51.580;5.010;2023-02-01T07:46:59;102063.09;;;7.70
24714;BMP280;12820;51.580;5.010;2023-02-01T07:52:01;102063.97;;;7.74
24714;BMP280;12820;51.580;5.010;2023-02-01T07:57:04;102074.91;;;7.79
24714;BMP280;12820;51.580;5.010;2023-02-01T08:02:07;102087.53;;;7.84
24714;BMP280;12820;51.580;5.010;2023-02-01T08:07:09;102098.47;;;7.89
24714;BMP280;12820;51.580;5.010;2023-02-01T08:12:11;102106.88;;;7.94
24714;BMP280;12820;51.580;5.010;2023-02-01T08:17:14;102092.03;;;8.03
24714;BMP280;12820;51.580;5.010;2023-02-01T08:22:16;102100.53;;;8.11
24714;BMP280;12820;51.580;5.010;2023-02-01T08:27:18;102104.88;;;8.22
24714;BMP280;12820;51.580;5.010;2023-02-01T08:32:20;102105.06;;;8.35
24714;BMP280;12820;51.580;5.010;2023-02-01T08:37:22;102099.44;;;8.48
24714;BMP280;12820;51.580;5.010;2023-02-01T08:42:24;102093.75;;;8.60
24714;BMP280;12820;51.580;5.010;2023-02-01T08:47:45;102083.03;;;8.73
24714;BMP280;12820;51.580;5.010;2023-02-01T08:52:49;102078.16;;;8.80
24714;BMP280;12820;51.580;5.010;2023-02-01T08:57:51;102064.03;;;8.88
24714;BMP280;12820;51.580;5.010;2023-02-01T09:02:55;102061.63;;;8.95
24714;BMP280;12820;51.580;5.010;2023-02-01T09:07:57;102066.72;;;9.04
24714;BMP280;12820;51.580;5.010;2023-02-01T09:12:59;102065.16;;;9.10
24714;BMP280;12820;51.580;5.010;2023-02-01T09:18:01;102058.50;;;9.17
24714;BMP280;12820;51.580;5.010;2023-02-01T09:23:03;102046.84;;;9.22
24714;BMP280;12820;51.580;5.010;2023-02-01T09:28:06;102046.06;;;9.24
24714;BMP280;12820;51.580;5.010;2023-02-01T09:33:09;102046.94;;;9.29
24714;BMP280;12820;51.580;5.010;2023-02-01T09:38:11;102051.16;;;9.33
24714;BMP280;12820;51.580;5.010;2023-02-01T09:48:33;102024.47;;;9.40
24714;BMP280;12820;51.580;5.010;2023-02-01T09:53:42;102032.84;;;9.44
24714;BMP280;12820;51.580;5.010;2023-02-01T09:58:49;102034.63;;;9.55
24714;BMP280;12820;51.580;5.010;2023-02-01T10:04:14;102078.22;;;9.64
24714;BMP280;12820;51.580;5.010;2023-02-01T10:30:57;102088.22;;;10.67
24714;BMP280;12820;51.580;5.010;2023-02-01T10:36:13;102094.13;;;10.72
24714;BMP280;12820;51.580;5.010;2023-02-01T10:41:30;102106.75;;;10.81
24714;BMP280;12820;51.580;5.010;2023-02-01T10:46:33;102080.78;;;10.88
24714;BMP280;12820;51.580;5.010;2023-02-01T10:56:56;102059.06;;;11.15
24714;BMP280;12820;51.580;5.010;2023-02-01T11:02:05;102059.91;;;11.12
24714;BMP280;12820;51.580;5.010;2023-02-01T11:07:22;102062.41;;;11.15
24714;BMP280;12820;51.580;5.010;2023-02-01T11:12:34;102045.66;;;11.17
24714;BMP280;12820;51.580;5.010;2023-02-01T11:17:40;102038.13;;;11.23
24714;BMP280;12820;51.580;5.010;2023-02-01T11:22:54;102022.25;;;11.31
24714;BMP280;12820;51.580;5.010;2023-02-01T11:27:57;102034.81;;;11.38
24714;BMP280;12820;51.580;5.010;2023-02-01T11:33:00;102031.44;;;11.34
24714;BMP280;12820;51.580;5.010;2023-02-01T11:38:27;102033.97;;;11.29
24714;BMP280;12820;51.580;5.010;2023-02-01T11:43:29;102022.19;;;11.27
24714;BMP280;12820;51.580;5.010;2023-02-01T11:48:32;102028.13;;;11.32
24714;BMP280;12820;51.580;5.010;2023-02-01T12:05:17;102019.69;;;11.24
24714;BMP280;12820;51.580;5.010;2023-02-01T12:16:15;102036.41;;;11.07
24714;BMP280;12820;51.580;5.010;2023-02-01T12:27:39;102007.03;;;11.00
24714;BMP280;12820;51.580;5.010;2023-02-01T12:37:39;101997.84;;;11.14
24714;BMP280;12820;51.580;5.010;2023-02-01T12:43:09;101991.13;;;11.25
24714;BMP280;12820;51.580;5.010;2023-02-01T12:48:32;102002.94;;;11.32
24714;BMP280;12820;51.580;5.010;2023-02-01T12:53:50;101995.41;;;11.45
24714;BMP280;12820;51.580;5.010;2023-02-01T12:58:58;101987.84;;;11.70
24714;BMP280;12820;51.580;5.010;2023-02-01T13:04:25;101976.88;;;12.07
24714;BMP280;12820;51.580;5.010;2023-02-01T13:10:02;101978.41;;;12.61
24714;BMP280;12820;51.580;5.010;2023-02-01T13:15:28;101980.81;;;12.84
24714;BMP280;12820;51.580;5.010;2023-02-01T13:20:34;101979.06;;;12.93
24714;BMP280;12820;51.580;5.010;2023-02-01T13:25:43;101983.94;;;13.22
24714;BMP280;12820;51.580;5.010;2023-02-01T13:41:55;101974.59;;;13.30
24714;BMP280;12820;51.580;5.010;2023-02-01T13:47:01;101975.56;;;13.14
24714;BMP280;12820;51.580;5.010;2023-02-01T13:52:04;102008.47;;;13.03
24714;BMP280;12820;51.580;5.010;2023-02-01T13:57:32;101997.63;;;12.83
24714;BMP280;12820;51.580;5.010;2023-02-01T14:02:46;101999.41;;;12.64
24714;BMP280;12820;51.580;5.010;2023-02-01T14:13:40;102007.06;;;12.30
24714;BMP280;12820;51.580;5.010;2023-02-01T14:34:31;102002.94;;;11.87
24714;BMP280;12820;51.580;5.010;2023-02-01T14:39:48;101989.53;;;11.79
24714;BMP280;12820;51.580;5.010;2023-02-01T14:44:54;102011.34;;;11.72
24714;BMP280;12820;51.580;5.010;2023-02-01T14:55:14;102014.69;;;11.50
24714;BMP280;12820;51.580;5.010;2023-02-01T15:00:22;102003.78;;;11.41
24714;BMP280;12820;51.580;5.010;2023-02-01T15:05:32;102018.88;;;11.32
24714;BMP280;12820;51.580;5.010;2023-02-01T15:10:39;102013.00;;;11.27
24714;BMP280;12820;51.580;5.010;2023-02-01T15:15:43;102017.16;;;11.18
24714;BMP280;12820;51.580;5.010;2023-02-01T15:20:56;102018.81;;;11.13
24714;BMP280;12820;51.580;5.010;2023-02-01T15:26:30;102014.63;;;11.09
24714;BMP280;12820;51.580;5.010;2023-02-01T15:36:35;102031.38;;;11.00
24714;BMP280;12820;51.580;5.010;2023-02-01T15:41:40;102029.69;;;10.95
24714;BMP280;12820;51.580;5.010;2023-02-01T15:46:45;102016.25;;;10.90
24714;BMP280;12820;51.580;5.010;2023-02-01T15:51:49;102024.63;;;10.86
24714;BMP280;12820;51.580;5.010;2023-02-01T15:56:53;102027.09;;;10.80
24714;BMP280;12820;51.580;5.010;2023-02-01T16:01:56;102014.50;;;10.77
24714;BMP280;12820;51.580;5.010;2023-02-01T16:07:01;102028.72;;;10.72
24714;BMP280;12820;51.580;5.010;2023-02-01T16:12:24;102023.69;;;10.68
24714;BMP280;12820;51.580;5.010;2023-02-01T16:17:28;102032.88;;;10.63
24714;BMP280;12820;51.580;5.010;2023-02-01T16:22:30;102040.44;;;10.60
24714;BMP280;12820;51.580;5.010;2023-02-01T16:27:32;102053.81;;;10.55
24714;BMP280;12820;51.580;5.010;2023-02-01T16:32:34;102037.91;;;10.53
24714;BMP280;12820;51.580;5.010;2023-02-01T16:37:39;102040.38;;;10.50
24714;BMP280;12820;51.580;5.010;2023-02-01T16:42:42;102049.59;;;10.48
24714;BMP280;12820;51.580;5.010;2023-02-01T16:47:47;102044.50;;;10.44
24714;BMP280;12820;51.580;5.010;2023-02-01T16:52:53;102062.94;;;10.41
24714;BMP280;12820;51.580;5.010;2023-02-01T16:57:55;102065.47;;;10.38
24714;BMP280;12820;51.580;5.010;2023-02-01T17:02:57;102085.53;;;10.35
24714;BMP280;12820;51.580;5.010;2023-02-01T17:08:06;102071.25;;;10.31
24714;BMP280;12820;51.580;5.010;2023-02-01T17:13:12;102089.66;;;10.28
24714;BMP280;12820;51.580;5.010;2023-02-01T17:18:16;102083.78;;;10.23
24714;BMP280;12820;51.580;5.010;2023-02-01T17:23:19;102081.22;;;10.20
24714;BMP280;12820;51.580;5.010;2023-02-01T17:28:21;102089.56;;;10.16
24714;BMP280;12820;51.580;5.010;2023-02-01T17:33:26;102084.53;;;10.13
24714;BMP280;12820;51.580;5.010;2023-02-01T17:38:36;102083.69;;;10.10
24714;BMP280;12820;51.580;5.010;2023-02-01T17:43:39;102105.44;;;10.08
24714;BMP280;12820;51.580;5.010;2023-02-01T17:48:41;102093.69;;;10.05
24714;BMP280;12820;51.580;5.010;2023-02-01T17:53:44;102104.56;;;10.04
24714;BMP280;12820;51.580;5.010;2023-02-01T17:58:47;102111.28;;;10.04
24714;BMP280;12820;51.580;5.010;2023-02-01T18:03:49;102101.19;;;10.02
24714;BMP280;12820;51.580;5.010;2023-02-01T18:08:52;102113.75;;;10.02
24714;BMP280;12820;51.580;5.010;2023-02-01T18:13:55;102101.19;;;10.02
24714;BMP280;12820;51.580;5.010;2023-02-01T18:18:57;102107.94;;;10.05
24714;BMP280;12820;51.580;5.010;2023-02-01T18:24:03;102116.31;;;10.05
24714;BMP280;12820;51.580;5.010;2023-02-01T18:29:05;102106.25;;;10.05
24714;BMP280;12820;51.580;5.010;2023-02-01T18:34:08;102106.28;;;10.08
24714;BMP280;12820;51.580;5.010;2023-02-01T18:39:10;102111.31;;;10.11
24714;BMP280;12820;51.580;5.010;2023-02-01T18:44:14;102104.63;;;10.13
24714;BMP280;12820;51.580;5.010;2023-02-01T18:49:16;102106.31;;;10.15
24714;BMP280;12820;51.580;5.010;2023-02-01T18:54:19;102105.50;;;10.18
24714;BMP280;12820;51.580;5.010;2023-02-01T18:59:21;102113.06;;;10.19
24714;BMP280;12820;51.580;5.010;2023-02-01T19:04:23;102116.41;;;10.20
24714;BMP280;12820;51.580;5.010;2023-02-01T19:09:28;102113.06;;;10.21
24714;BMP280;12820;51.580;5.010;2023-02-01T19:14:32;102118.94;;;10.21
24714;BMP280;12820;51.580;5.010;2023-02-01T19:19:34;102119.78;;;10.22
24714;BMP280;12820;51.580;5.010;2023-02-01T19:24:38;102117.28;;;10.23
24714;BMP280;12820;51.580;5.010;2023-02-01T19:29:41;102113.94;;;10.23
24714;BMP280;12820;51.580;5.010;2023-02-01T19:34:46;102114.75;;;10.22
24714;BMP280;12820;51.580;5.010;2023-02-01T19:39:48;102121.41;;;10.20
24714;BMP280;12820;51.580;5.010;2023-02-01T19:44:51;102121.44;;;10.18
24714;BMP280;12820;51.580;5.010;2023-02-01T19:49:53;102125.59;;;10.16
24714;BMP280;12820;51.580;5.010;2023-02-01T19:54:55;102132.28;;;10.16
24714;BMP280;12820;51.580;5.010;2023-02-01T19:59:57;102124.75;;;10.16
24714;BMP280;12820;51.580;5.010;2023-02-01T20:04:59;102118.06;;;10.15
24714;BMP280;12820;51.580;5.010;2023-02-01T20:10:01;102128.13;;;10.15
24714;BMP280;12820;51.580;5.010;2023-02-01T20:15:04;102125.59;;;10.15
24714;BMP280;12820;51.580;5.010;2023-02-01T20:20:07;102123.91;;;10.14
24714;BMP280;12820;51.580;5.010;2023-02-01T20:25:09;102128.94;;;10.14
24714;BMP280;12820;51.580;5.010;2023-02-01T20:30:13;102120.59;;;10.15
24714;BMP280;12820;51.580;5.010;2023-02-01T20:35:20;102132.28;;;10.16
24714;BMP280;12820;51.580;5.010;2023-02-01T20:40:23;102128.13;;;10.15
24714;BMP280;12820;51.580;5.010;2023-02-01T20:45:25;102151.56;;;10.14
24714;BMP280;12820;51.580;5.010;2023-02-01T20:50:28;102138.97;;;10.12
24714;BMP280;12820;51.580;5.010;2023-02-01T20:55:30;102128.94;;;10.14
24714;BMP280;12820;51.580;5.010;2023-02-01T21:00:32;102143.19;;;10.15
24714;BMP280;12820;51.580;5.010;2023-02-01T21:05:34;102144.03;;;10.17
24714;BMP280;12820;51.580;5.010;2023-02-01T21:10:43;102153.28;;;10.19
24714;BMP280;12820;51.580;5.010;2023-02-01T21:15:45;102163.31;;;10.21
24714;BMP280;12820;51.580;5.010;2023-02-01T21:20:48;102167.50;;;10.22
24714;BMP280;12820;51.580;5.010;2023-02-01T21:25:50;102160.00;;;10.25
24714;BMP280;12820;51.580;5.010;2023-02-01T21:30:52;102162.50;;;10.25
24714;BMP280;12820;51.580;5.010;2023-02-01T21:35:54;102160.03;;;10.28
24714;BMP280;12820;51.580;5.010;2023-02-01T21:40:57;102163.38;;;10.29
24714;BMP280;12820;51.580;5.010;2023-02-01T21:46:19;102171.78;;;10.31
24714;BMP280;12820;51.580;5.010;2023-02-01T21:51:21;102168.41;;;10.29
24714;BMP280;12820;51.580;5.010;2023-02-01T21:56:23;102175.94;;;10.29
24714;BMP280;12820;51.580;5.010;2023-02-01T22:01:25;102174.28;;;10.30
24714;BMP280;12820;51.580;5.010;2023-02-01T22:06:42;102175.94;;;10.29
24714;BMP280;12820;51.580;5.010;2023-02-01T22:11:47;102181.81;;;10.30
24714;BMP280;12820;51.580;5.010;2023-02-01T22:16:50;102179.31;;;10.31
24714;BMP280;12820;51.580;5.010;2023-02-01T22:21:53;102195.25;;;10.32
24714;BMP280;12820;51.580;5.010;2023-02-01T22:26:55;102195.28;;;10.33
24714;BMP280;12820;51.580;5.010;2023-02-01T22:32:15;102197.78;;;10.35
24714;BMP280;12820;51.580;5.010;2023-02-01T22:37:17;102205.31;;;10.33
24714;BMP280;12820;51.580;5.010;2023-02-01T22:42:19;102200.28;;;10.33
24714;BMP280;12820;51.580;5.010;2023-02-01T22:47:22;102201.94;;;10.31
24714;BMP280;12820;51.580;5.010;2023-02-01T22:52:24;102200.25;;;10.29
24714;BMP280;12820;51.580;5.010;2023-02-01T22:57:26;102212.78;;;10.26
24714;BMP280;12820;51.580;5.010;2023-02-01T23:02:28;102202.72;;;10.25
24714;BMP280;12820;51.580;5.010;2023-02-01T23:07:31;102206.91;;;10.24
24714;BMP280;12820;51.580;5.010;2023-02-01T23:12:33;102208.56;;;10.22
24714;BMP280;12820;51.580;5.010;2023-02-01T23:17:36;102201.84;;;10.21
24714;BMP280;12820;51.580;5.010;2023-02-01T23:22:38;102206.84;;;10.20
24714;BMP280;12820;51.580;5.010;2023-02-01T23:27:40;102216.09;;;10.19
24714;BMP280;12820;51.580;5.010;2023-02-01T23:32:42;102219.41;;;10.18
24714;BMP280;12820;51.580;5.010;2023-02-01T23:37:44;102222.75;;;10.17
24714;BMP280;12820;51.580;5.010;2023-02-01T23:42:46;102220.25;;;10.17
24714;BMP280;12820;51.580;5.010;2023-02-01T23:48:08;102227.75;;;10.16
24714;BMP280;12820;51.580;5.010;2023-02-01T23:53:10;102217.72;;;10.16
24714;BMP280;12820;51.580;5.010;2023-02-01T23:58:12;102216.06;;;10.15
